Time;durP1;ratioP1;P1;durP2;ratioP2;P2;SDS_P1;SDS_P2;PMS_P1;PMS_P2;Temp;Humidity;BMP_temperature;BMP_pressure;BME280_temperature;BME280_humidity;BME280_pressure;Samples;Min_cycle;Max_cycle;Signal;HPM_P1;HPM_P2
2021/08/15 00:01:08;;;;;;;24.17;17.90;;;20.20;99.90;;;;;;5071752;28;20043;-76
2021/08/15 00:03:34;;;;;;;24.75;19.67;;;20.20;99.90;;;;;;5071902;28;20020;-74
2021/08/15 00:05:59;;;;;;;22.23;18.60;;;20.20;99.90;;;;;;5070881;28;20375;-75
2021/08/15 00:08:25;;;;;;;23.90;20.83;;;20.20;99.90;;;;;;5071294;28;20039;-75
2021/08/15 00:10:51;;;;;;;21.42;17.60;;;20.20;99.90;;;;;;5053648;28;20040;-75
2021/08/15 00:13:17;;;;;;;21.35;18.85;;;20.10;99.90;;;;;;5071957;28;20082;-75
2021/08/15 00:15:42;;;;;;;21.63;19.27;;;20.10;99.90;;;;;;5070862;28;20028;-75
2021/08/15 00:18:08;;;;;;;22.10;18.38;;;20.10;99.90;;;;;;5052342;28;20033;-75
2021/08/15 00:20:34;;;;;;;27.42;19.45;;;20.10;99.90;;;;;;5071634;28;20103;-74
2021/08/15 00:22:59;;;;;;;21.85;19.58;;;20.10;99.90;;;;;;5071425;28;20112;-77
2021/08/15 00:25:25;;;;;;;23.67;20.13;;;20.00;99.90;;;;;;5055503;28;20021;-75
2021/08/15 00:27:51;;;;;;;27.48;19.63;;;20.00;99.90;;;;;;5051559;28;20032;-75
2021/08/15 00:30:17;;;;;;;22.10;19.52;;;19.90;99.90;;;;;;5051302;28;20429;-76
2021/08/15 00:32:47;;;;;;;26.17;20.23;;;19.90;99.90;;;;;;5051364;28;20033;-76
2021/08/15 00:35:13;;;;;;;25.65;20.77;;;19.80;99.90;;;;;;5050786;28;20387;-75
2021/08/15 00:37:39;;;;;;;22.10;19.75;;;19.80;99.90;;;;;;5051162;28;20025;-76
2021/08/15 00:40:06;;;;;;;23.30;18.20;;;19.70;99.90;;;;;;5051273;28;20013;-76
2021/08/15 00:42:32;;;;;;;18.98;16.90;;;19.80;99.90;;;;;;5051208;28;20489;-76
2021/08/15 00:44:57;;;;;;;20.92;18.73;;;19.70;99.90;;;;;;5050463;28;20032;-75
2021/08/15 00:47:23;;;;;;;21.88;19.23;;;19.70;99.90;;;;;;5051374;28;20024;-75
2021/08/15 00:49:49;;;;;;;22.67;19.45;;;19.80;99.90;;;;;;5064827;28;20055;-75
2021/08/15 00:52:14;;;;;;;24.08;18.20;;;19.80;99.90;;;;;;5071175;28;20394;-75
2021/08/15 00:54:41;;;;;;;24.13;19.67;;;19.70;99.90;;;;;;5070718;28;20135;-75
2021/08/15 00:57:07;;;;;;;28.55;21.33;;;19.70;99.90;;;;;;5071258;28;20021;-75
2021/08/15 00:59:37;;;;;;;25.20;22.50;;;19.60;99.90;;;;;;5071074;28;20027;-76
2021/08/15 01:02:03;;;;;;;25.38;22.10;;;19.50;99.90;;;;;;5071264;28;20090;-77
2021/08/15 01:04:29;;;;;;;27.98;21.65;;;19.40;99.90;;;;;;5070826;28;20542;-76
2021/08/15 01:06:55;;;;;;;26.73;22.38;;;19.40;99.90;;;;;;5070944;28;20421;-75
2021/08/15 01:09:21;;;;;;;29.05;21.58;;;19.40;99.90;;;;;;5070921;28;20024;-76
2021/08/15 01:11:48;;;;;;;28.83;22.00;;;19.40;99.90;;;;;;5070516;28;20024;-73
2021/08/15 01:14:14;;;;;;;29.15;23.98;;;19.40;99.90;;;;;;5053027;28;20020;-75
2021/08/15 01:16:44;;;;;;;28.13;23.45;;;19.40;99.90;;;;;;5070886;28;20475;-76
2021/08/15 01:19:10;;;;;;;23.20;20.42;;;19.30;99.90;;;;;;5074498;28;20044;-76
2021/08/15 01:21:40;;;;;;;24.75;20.40;;;19.30;99.90;;;;;;5074946;28;20569;-75
2021/08/15 01:24:06;;;;;;;24.50;18.75;;;19.20;99.90;;;;;;5074799;28;20032;-75
2021/08/15 01:26:32;;;;;;;20.02;17.33;;;19.20;99.90;;;;;;5073659;28;20037;-76
2021/08/15 01:28:58;;;;;;;23.08;18.75;;;19.20;99.90;;;;;;5075111;28;20110;-75
2021/08/15 01:31:24;;;;;;;21.58;17.58;;;19.20;99.90;;;;;;5074879;28;20028;-74
2021/08/15 01:33:51;;;;;;;26.48;18.10;;;19.20;99.90;;;;;;5074786;28;20486;-74
2021/08/15 01:36:20;;;;;;;25.95;19.38;;;19.20;99.90;;;;;;5058494;28;20029;-75
2021/08/15 01:38:48;;;;;;;22.15;19.13;;;19.20;99.90;;;;;;5083839;28;20020;-75
2021/08/15 01:41:13;;;;;;;28.50;19.73;;;19.20;99.90;;;;;;5076239;28;20036;-75
2021/08/15 01:43:55;;;;;;;26.60;20.23;;;19.20;99.90;;;;;;5074407;28;20025;-73
2021/08/15 01:46:24;;;;;;;24.20;21.45;;;19.20;99.90;;;;;;5073900;28;20103;-76
2021/08/15 01:48:49;;;;;;;24.60;20.42;;;19.10;99.90;;;;;;5074112;28;20021;-76
2021/08/15 01:51:16;;;;;;;29.23;23.67;;;19.10;99.90;;;;;;5074132;28;20415;-75
2021/08/15 01:53:42;;;;;;;31.13;23.00;;;19.00;99.90;;;;;;5074271;28;20039;-75
2021/08/15 01:56:08;;;;;;;28.85;22.92;;;19.00;99.90;;;;;;5055471;28;20024;-76
2021/08/15 01:58:34;;;;;;;33.53;23.13;;;18.90;99.90;;;;;;5074020;28;20031;-75
2021/08/15 02:01:00;;;;;;;24.48;20.83;;;19.00;99.90;;;;;;5073812;28;20020;-76
2021/08/15 02:03:26;;;;;;;24.63;20.23;;;18.90;99.90;;;;;;5055355;28;20029;-76
2021/08/15 02:05:51;;;;;;;22.48;20.08;;;18.90;99.90;;;;;;5073695;28;20226;-77
2021/08/15 02:08:17;;;;;;;25.60;22.63;;;18.90;99.90;;;;;;5055804;28;20032;-76
2021/08/15 02:10:43;;;;;;;30.17;23.65;;;19.00;99.90;;;;;;5073945;28;20016;-75
2021/08/15 02:13:09;;;;;;;27.75;23.10;;;18.90;99.90;;;;;;5073774;28;20021;-74
2021/08/15 02:15:35;;;;;;;27.38;23.08;;;18.90;99.90;;;;;;5072970;28;20052;-74
2021/08/15 02:18:01;;;;;;;25.08;20.83;;;18.90;99.90;;;;;;5055812;28;20437;-75
2021/08/15 02:20:28;;;;;;;31.83;22.85;;;18.90;99.90;;;;;;5056139;28;20028;-75
2021/08/15 02:22:54;;;;;;;33.95;22.85;;;18.90;99.90;;;;;;5074154;28;20029;-74
2021/08/15 02:25:21;;;;;;;26.73;23.08;;;18.90;99.90;;;;;;5073319;28;20020;-75
2021/08/15 02:27:48;;;;;;;30.08;22.38;;;18.90;99.90;;;;;;5055292;28;20046;-74
2021/08/15 02:30:15;;;;;;;31.08;22.90;;;18.80;99.90;;;;;;5072651;28;20103;-75
2021/08/15 02:32:42;;;;;;;30.02;22.90;;;18.80;99.90;;;;;;5073379;28;20035;-75
2021/08/15 02:35:10;;;;;;;25.05;20.13;;;18.70;99.90;;;;;;5072962;28;20028;-75
2021/08/15 02:37:37;;;;;;;30.80;22.98;;;18.70;99.90;;;;;;5073303;28;20116;-75
2021/08/15 02:40:04;;;;;;;30.20;21.23;;;18.80;99.90;;;;;;5073213;28;20032;-75
2021/08/15 02:42:32;;;;;;;28.98;20.80;;;18.80;99.90;;;;;;5072600;28;20085;-76
2021/08/15 02:44:58;;;;;;;30.10;21.83;;;18.80;99.90;;;;;;5072432;28;20025;-75
2021/08/15 02:47:23;;;;;;;25.52;20.30;;;18.70;99.90;;;;;;5072938;28;20031;-74
2021/08/15 02:49:49;;;;;;;24.80;20.52;;;18.80;99.90;;;;;;5072855;28;20482;-76
2021/08/15 02:52:15;;;;;;;24.40;20.73;;;18.80;99.90;;;;;;5073126;28;20031;-75
2021/08/15 02:54:41;;;;;;;24.00;20.27;;;18.70;99.90;;;;;;5072621;28;20463;-75
2021/08/15 02:57:07;;;;;;;22.52;19.83;;;18.70;99.90;;;;;;5072668;28;20024;-76
2021/08/15 02:59:39;;;;;;;25.75;19.92;;;18.80;99.90;;;;;;5054807;28;20071;-76
2021/08/15 03:02:08;;;;;;;31.70;21.67;;;18.60;99.90;;;;;;5072813;28;20462;-76
2021/08/15 03:04:34;;;;;;;30.83;22.55;;;18.60;99.90;;;;;;5072539;28;20502;-76
2021/08/15 03:07:00;;;;;;;33.63;22.63;;;18.60;99.90;;;;;;5072751;28;20059;-76
2021/08/15 03:09:26;;;;;;;29.80;24.50;;;18.60;99.90;;;;;;5072854;28;20406;-76
2021/08/15 03:11:52;;;;;;;28.98;23.95;;;18.50;99.90;;;;;;5055054;28;20079;-75
2021/08/15 03:14:17;;;;;;;28.17;22.55;;;18.40;99.90;;;;;;5072412;28;20016;-75
2021/08/15 03:16:43;;;;;;;29.67;23.38;;;18.40;99.90;;;;;;5084362;28;20017;-76
2021/08/15 03:19:08;;;;;;;28.23;23.90;;;18.40;99.90;;;;;;5093487;28;20036;-75
2021/08/15 03:21:35;;;;;;;28.08;23.27;;;18.40;99.90;;;;;;5059444;28;20067;-75
2021/08/15 03:24:02;;;;;;;27.38;23.67;;;18.30;99.90;;;;;;5072443;28;20021;-74
2021/08/15 03:26:27;;;;;;;28.05;23.58;;;18.30;99.90;;;;;;5053729;28;20028;-75
2021/08/15 03:28:53;;;;;;;30.90;23.85;;;18.30;99.90;;;;;;5072180;28;20028;-75
2021/08/15 03:31:19;;;;;;;30.33;22.90;;;18.30;99.90;;;;;;5072237;28;20024;-74
2021/08/15 03:33:45;;;;;;;30.80;23.70;;;18.30;99.90;;;;;;5071411;28;20462;-76
2021/08/15 03:36:10;;;;;;;26.88;21.23;;;18.30;99.90;;;;;;5071988;28;20487;-75
2021/08/15 03:38:36;;;;;;;26.73;22.63;;;18.20;99.90;;;;;;5054827;28;20024;-75
2021/08/15 03:41:02;;;;;;;27.00;21.50;;;18.10;99.90;;;;;;5071703;28;20036;-75
2021/08/15 03:43:27;;;;;;;28.88;23.38;;;18.20;99.90;;;;;;5072168;28;20031;-75
2021/08/15 03:45:53;;;;;;;31.33;22.10;;;18.20;99.90;;;;;;5071284;28;20027;-75
2021/08/15 03:48:19;;;;;;;32.30;23.17;;;18.20;99.90;;;;;;5071830;28;20391;-76
2021/08/15 03:50:44;;;;;;;31.55;23.75;;;18.20;99.90;;;;;;5071673;28;20050;-74
2021/08/15 03:53:10;;;;;;;31.77;23.60;;;18.10;99.90;;;;;;5073055;28;20016;-74
2021/08/15 03:55:35;;;;;;;26.35;22.52;;;18.10;99.90;;;;;;5072152;28;20549;-75
2021/08/15 03:58:01;;;;;;;30.35;23.98;;;18.20;99.90;;;;;;5055794;28;20040;-75
2021/08/15 04:00:27;;;;;;;32.72;24.38;;;18.20;99.90;;;;;;5073211;28;20165;-75
2021/08/15 04:02:54;;;;;;;32.80;26.50;;;18.20;99.90;;;;;;5072059;28;20028;-76
2021/08/15 04:05:19;;;;;;;34.03;26.90;;;18.10;99.90;;;;;;5073322;28;20027;-75
2021/08/15 04:07:45;;;;;;;34.63;26.65;;;18.10;99.90;;;;;;5073733;28;20021;-75
2021/08/15 04:10:11;;;;;;;31.40;25.30;;;18.10;99.90;;;;;;5071865;28;20017;-75
2021/08/15 04:12:37;;;;;;;33.28;27.45;;;18.10;99.90;;;;;;5071660;28;20020;-74
2021/08/15 04:15:03;;;;;;;29.08;24.35;;;18.10;99.90;;;;;;5070869;28;20025;-75
2021/08/15 04:17:28;;;;;;;28.75;24.33;;;18.00;99.90;;;;;;5071535;28;20028;-75
2021/08/15 04:19:54;;;;;;;27.95;23.52;;;18.00;99.90;;;;;;5071647;28;20029;-75
2021/08/15 04:22:20;;;;;;;25.02;21.05;;;17.90;99.90;;;;;;5072399;28;20054;-74
2021/08/15 04:24:45;;;;;;;24.23;21.65;;;17.90;99.90;;;;;;5070845;28;20398;-74
2021/08/15 04:27:11;;;;;;;24.65;20.45;;;17.90;99.90;;;;;;5071709;28;20486;-75
2021/08/15 04:29:39;;;;;;;27.45;21.42;;;17.90;99.90;;;;;;5071317;28;20025;-75
2021/08/15 04:32:06;;;;;;;30.08;23.95;;;17.90;99.90;;;;;;5071447;28;20524;-75
2021/08/15 04:34:33;;;;;;;33.40;25.50;;;18.00;99.90;;;;;;5070752;28;20048;-74
2021/08/15 04:36:58;;;;;;;28.80;24.35;;;18.10;99.90;;;;;;5071254;28;20020;-74
2021/08/15 04:39:24;;;;;;;27.88;23.40;;;18.10;99.90;;;;;;5052766;28;20024;-75
2021/08/15 04:41:49;;;;;;;28.75;21.13;;;18.00;99.90;;;;;;5053615;28;20097;-76
2021/08/15 04:44:15;;;;;;;32.92;20.42;;;18.00;99.90;;;;;;5060539;28;20044;-70
2021/08/15 04:46:41;;;;;;;22.75;19.17;;;18.00;99.90;;;;;;5070333;28;20024;-71
2021/08/15 04:49:06;;;;;;;20.30;18.25;;;18.10;99.90;;;;;;5069860;28;20465;-71
2021/08/15 04:51:32;;;;;;;21.63;18.33;;;18.10;99.90;;;;;;5072091;28;20107;-71
2021/08/15 04:53:58;;;;;;;22.45;18.92;;;18.20;99.90;;;;;;5075335;28;20114;-71
2021/08/15 04:56:23;;;;;;;25.27;20.60;;;18.20;99.90;;;;;;5076260;28;20062;-71
2021/08/15 04:58:49;;;;;;;23.67;19.83;;;18.30;99.90;;;;;;5080670;28;20027;-73
2021/08/15 05:01:15;;;;;;;25.02;20.63;;;18.30;99.90;;;;;;5074836;28;20478;-72
2021/08/15 05:03:40;;;;;;;23.90;19.50;;;18.30;99.90;;;;;;5074963;28;20119;-72
2021/08/15 05:06:06;;;;;;;26.92;21.02;;;18.40;99.90;;;;;;5075541;28;20031;-73
2021/08/15 05:08:32;;;;;;;26.10;21.60;;;18.40;99.90;;;;;;5074663;28;20039;-72
2021/08/15 05:10:58;;;;;;;29.75;22.40;;;18.40;99.90;;;;;;5074378;28;20029;-73
2021/08/15 05:13:28;;;;;;;29.10;23.77;;;18.40;99.90;;;;;;5074375;28;20035;-72
2021/08/15 05:15:55;;;;;;;28.85;21.70;;;18.40;99.90;;;;;;5073512;28;20021;-71
2021/08/15 05:18:20;;;;;;;25.23;22.60;;;18.50;99.90;;;;;;5073623;28;20036;-71
2021/08/15 05:20:46;;;;;;;25.00;20.98;;;18.50;99.90;;;;;;5083321;22;20008;-71
2021/08/15 05:23:12;;;;;;;23.52;19.75;;;18.60;99.90;;;;;;5034192;28;20030;-72
2021/08/15 05:25:38;;;;;;;22.63;18.85;;;18.60;99.90;;;;;;5032735;28;20025;-72
2021/08/15 05:28:05;;;;;;;25.35;19.60;;;18.70;99.90;;;;;;5034431;28;20022;-72
2021/08/15 05:30:31;;;;;;;20.50;17.50;;;18.80;99.90;;;;;;5034429;28;20028;-72
2021/08/15 05:32:57;;;;;;;24.73;18.38;;;18.80;99.90;;;;;;5034509;28;20037;-71
2021/08/15 05:35:23;;;;;;;22.38;17.63;;;18.90;99.90;;;;;;5033178;28;20021;-72
2021/08/15 05:37:48;;;;;;;20.67;16.10;;;18.90;99.90;;;;;;5033870;28;20033;-72
2021/08/15 05:40:14;;;;;;;19.48;15.73;;;19.00;99.90;;;;;;5034229;28;20391;-72
2021/08/15 05:42:40;;;;;;;19.65;16.10;;;19.00;99.90;;;;;;5034033;28;20108;-73
2021/08/15 05:45:06;;;;;;;19.80;16.27;;;19.00;99.90;;;;;;5033077;28;20040;-72
2021/08/15 05:47:32;;;;;;;19.70;16.30;;;19.10;99.90;;;;;;5033291;28;20021;-73
2021/08/15 05:49:58;;;;;;;19.48;17.48;;;19.10;99.90;;;;;;5033585;28;20032;-73
2021/08/15 05:52:24;;;;;;;21.40;17.80;;;19.20;99.90;;;;;;5033699;28;20375;-72
2021/08/15 05:54:51;;;;;;;22.58;18.10;;;19.30;99.90;;;;;;5033099;28;20025;-71
2021/08/15 05:57:16;;;;;;;22.02;18.75;;;19.30;99.90;;;;;;5033749;28;20026;-72
2021/08/15 05:59:42;;;;;;;23.85;18.23;;;19.40;99.90;;;;;;5034039;28;20041;-72
2021/08/15 06:02:08;;;;;;;22.67;16.40;;;19.40;99.90;;;;;;5033845;28;20144;-73
2021/08/15 06:04:33;;;;;;;18.30;16.27;;;19.50;99.90;;;;;;5032159;28;20163;-74
2021/08/15 06:06:59;;;;;;;19.38;16.77;;;19.50;99.90;;;;;;5032876;28;20593;-73
2021/08/15 06:09:25;;;;;;;20.27;17.45;;;19.70;99.90;;;;;;5032442;28;20065;-73
2021/08/15 06:11:51;;;;;;;18.85;16.67;;;19.60;99.90;;;;;;5018094;28;20029;-73
2021/08/15 06:14:17;;;;;;;22.70;16.58;;;19.60;99.90;;;;;;5013348;28;20042;-71
2021/08/15 06:16:43;;;;;;;17.15;15.15;;;19.70;99.90;;;;;;5013821;28;20025;-73
2021/08/15 06:19:08;;;;;;;22.67;16.15;;;19.80;99.90;;;;;;5013520;28;20030;-73
2021/08/15 06:21:34;;;;;;;19.00;16.42;;;19.90;99.90;;;;;;5013519;28;20077;-73
2021/08/15 06:24:00;;;;;;;20.35;16.10;;;20.00;99.90;;;;;;5013732;28;20033;-73
2021/08/15 06:26:25;;;;;;;17.20;15.27;;;20.10;99.90;;;;;;5012765;28;20478;-74
2021/08/15 06:28:51;;;;;;;19.67;14.60;;;20.20;99.90;;;;;;5013893;28;20072;-72
2021/08/15 06:31:18;;;;;;;23.92;16.30;;;20.20;99.90;;;;;;5013577;28;20526;-72
2021/08/15 06:33:43;;;;;;;17.95;16.05;;;20.30;99.90;;;;;;5011982;28;20434;-73
2021/08/15 06:36:09;;;;;;;17.77;15.75;;;20.50;99.90;;;;;;5018985;28;20029;-73
2021/08/15 06:38:35;;;;;;;20.48;18.05;;;20.60;99.90;;;;;;5032938;28;20032;-72
2021/08/15 06:41:01;;;;;;;16.95;14.40;;;20.70;99.90;;;;;;5033067;28;20030;-76
2021/08/15 06:43:26;;;;;;;22.98;16.08;;;20.70;99.90;;;;;;5024546;28;20105;-77
2021/08/15 06:45:52;;;;;;;20.98;15.10;;;20.70;99.90;;;;;;5013169;28;20034;-76
2021/08/15 06:48:18;;;;;;;19.75;16.05;;;20.80;99.90;;;;;;5012876;28;20034;-74
2021/08/15 06:50:43;;;;;;;15.93;14.23;;;21.00;99.90;;;;;;5012986;28;20083;-75
2021/08/15 06:53:09;;;;;;;18.48;15.00;;;21.00;99.90;;;;;;5011753;28;20014;-75
2021/08/15 06:55:35;;;;;;;18.33;16.05;;;21.10;99.90;;;;;;5012079;28;20044;-74
2021/08/15 06:58:00;;;;;;;18.63;14.10;;;21.20;99.90;;;;;;5013601;28;20115;-75
2021/08/15 07:00:26;;;;;;;19.95;14.00;;;21.20;99.90;;;;;;5011394;28;20022;-74
2021/08/15 07:02:52;;;;;;;16.60;13.48;;;21.20;99.90;;;;;;5013550;28;20034;-77
2021/08/15 07:05:19;;;;;;;19.67;15.35;;;21.40;99.90;;;;;;5011596;28;20064;-74
2021/08/15 07:07:45;;;;;;;19.08;14.15;;;21.30;99.90;;;;;;5030939;28;20026;-75
2021/08/15 07:10:11;;;;;;;17.95;14.27;;;21.40;99.90;;;;;;5032687;28;20021;-74
2021/08/15 07:12:37;;;;;;;16.83;15.05;;;21.50;99.90;;;;;;5032350;28;20468;-75
2021/08/15 07:15:03;;;;;;;16.45;13.73;;;21.80;99.90;;;;;;5030990;28;20064;-73
2021/08/15 07:17:30;;;;;;;16.08;13.82;;;22.10;99.90;;;;;;5032228;28;20026;-75
2021/08/15 07:19:55;;;;;;;16.27;13.45;;;22.20;99.90;;;;;;5032081;28;20113;-76
2021/08/15 07:22:21;;;;;;;17.90;13.45;;;22.30;99.90;;;;;;5031835;28;20108;-74
2021/08/15 07:24:47;;;;;;;15.35;12.82;;;22.30;99.90;;;;;;5031350;28;20109;-74
2021/08/15 07:27:13;;;;;;;17.30;12.60;;;22.40;99.90;;;;;;5032045;28;20053;-73
2021/08/15 07:29:39;;;;;;;15.73;13.50;;;22.40;99.90;;;;;;5032196;28;20764;-72
2021/08/15 07:32:05;;;;;;;17.05;13.35;;;22.60;99.90;;;;;;5032192;28;20036;-73
2021/08/15 07:34:31;;;;;;;14.32;12.80;;;22.70;99.90;;;;;;5031207;28;20026;-74
2021/08/15 07:36:57;;;;;;;15.50;12.25;;;22.80;99.90;;;;;;5032124;28;20030;-75
2021/08/15 07:39:23;;;;;;;18.52;13.38;;;23.00;99.90;;;;;;5032001;28;20041;-75
2021/08/15 07:41:49;;;;;;;16.55;12.65;;;23.10;99.90;;;;;;5031894;28;20061;-75
2021/08/15 07:44:14;;;;;;;15.43;12.98;;;23.20;99.90;;;;;;5031848;28;20032;-75
2021/08/15 07:46:40;;;;;;;18.20;12.50;;;23.40;99.90;;;;;;5031413;28;20040;-75
2021/08/15 07:49:05;;;;;;;13.93;11.57;;;23.60;99.90;;;;;;5029849;28;20037;-75
2021/08/15 07:51:31;;;;;;;17.77;12.20;;;23.80;99.90;;;;;;5031636;28;20053;-74
2021/08/15 07:53:58;;;;;;;18.20;11.85;;;23.80;99.90;;;;;;5030465;28;20025;-74
2021/08/15 07:56:23;;;;;;;21.98;12.82;;;23.80;99.90;;;;;;5030888;28;20025;-74
2021/08/15 07:58:49;;;;;;;13.88;12.48;;;24.00;99.90;;;;;;5031482;28;20163;-74
2021/08/15 08:01:16;;;;;;;13.68;12.15;;;23.80;99.90;;;;;;5031410;28;20025;-75
2021/08/15 08:03:42;;;;;;;16.00;12.23;;;24.00;99.90;;;;;;5031613;28;20049;-74
2021/08/15 08:06:08;;;;;;;16.42;11.85;;;24.10;99.90;;;;;;5029833;28;20068;-73
2021/08/15 08:08:34;;;;;;;13.77;11.30;;;24.20;99.90;;;;;;5031245;28;20089;-73
2021/08/15 08:10:59;;;;;;;15.00;11.43;;;24.40;99.90;;;;;;5029523;28;20034;-72
2021/08/15 08:13:25;;;;;;;15.00;11.10;;;24.90;99.90;;;;;;5011310;28;20108;-69
2021/08/15 08:15:51;;;;;;;12.82;10.38;;;25.20;99.90;;;;;;5009757;28;20116;-69
2021/08/15 08:18:17;;;;;;;14.75;11.18;;;25.40;99.90;;;;;;5011560;28;20080;-71
2021/08/15 08:20:43;;;;;;;15.73;10.30;;;25.60;99.90;;;;;;5011257;28;20034;-70
2021/08/15 08:23:14;;;;;;;14.32;10.27;;;25.60;99.90;;;;;;5011812;28;20032;-70
2021/08/15 08:25:43;;;;;;;11.55;10.18;;;25.60;99.90;;;;;;5017974;28;20037;-70
2021/08/15 08:28:09;;;;;;;11.90;9.45;;;25.90;99.90;;;;;;5030377;28;20655;-70
2021/08/15 08:30:35;;;;;;;13.45;9.35;;;26.00;99.90;;;;;;5027867;28;20029;-71
2021/08/15 08:33:01;;;;;;;13.52;8.98;;;26.60;99.90;;;;;;5029320;28;20032;-70
2021/08/15 08:35:27;;;;;;;10.98;8.73;;;27.10;99.90;;;;;;5028233;28;20123;-71
2021/08/15 08:37:52;;;;;;;10.52;8.80;;;27.50;99.90;;;;;;5028232;28;20052;-71
2021/08/15 08:40:19;;;;;;;11.55;8.35;;;27.90;99.90;;;;;;5029691;28;20052;-71
2021/08/15 08:42:46;;;;;;;8.88;7.97;;;28.50;99.90;;;;;;5030247;28;20476;-70
2021/08/15 08:45:17;;;;;;;8.13;7.32;;;28.70;99.90;;;;;;5029623;28;20032;-71
2021/08/15 08:47:43;;;;;;;14.27;8.25;;;28.10;99.90;;;;;;5031569;28;20052;-71
2021/08/15 08:50:09;;;;;;;8.60;7.75;;;28.90;99.90;;;;;;5031220;28;20067;-71
2021/08/15 08:52:34;;;;;;;10.00;7.55;;;29.40;99.90;;;;;;5031290;28;20419;-70
2021/08/15 08:55:04;;;;;;;10.05;7.60;;;29.20;99.90;;;;;;5030258;28;20021;-70
2021/08/15 08:57:30;;;;;;;8.43;7.53;;;29.60;99.90;;;;;;5030897;28;20025;-70
2021/08/15 08:59:55;;;;;;;10.40;7.40;;;30.30;99.90;;;;;;5030998;28;20072;-71
2021/08/15 09:02:21;;;;;;;10.30;7.72;;;31.50;99.90;;;;;;5031073;28;20488;-70
2021/08/15 09:04:47;;;;;;;14.50;7.43;;;31.50;99.90;;;;;;5030532;28;20025;-70
2021/08/15 09:07:19;;;;;;;7.60;6.82;;;32.20;99.90;;;;;;5031303;28;20352;-70
2021/08/15 09:09:51;;;;;;;13.25;7.10;;;32.80;99.90;;;;;;5031078;28;20187;-70
2021/08/15 09:12:17;;;;;;;9.57;6.90;;;32.90;99.90;;;;;;5030534;28;20111;-71
2021/08/15 09:14:44;;;;;;;8.63;6.70;;;33.00;99.90;;;;;;5030768;28;20025;-70
2021/08/15 09:17:10;;;;;;;10.25;7.38;;;32.70;99.90;;;;;;5031452;28;20494;-71
2021/08/15 09:19:44;;;;;;;7.20;6.60;;;33.60;99.70;;;;;;5030774;28;20026;-70
2021/08/15 09:22:26;;;;;;;7.55;6.57;;;33.00;98.20;;;;;;5030637;28;20487;-69
2021/08/15 09:24:51;;;;;;;6.63;5.97;;;31.20;99.90;;;;;;5030050;28;20029;-69
2021/08/15 09:27:28;;;;;;;8.73;6.45;;;31.70;99.90;;;;;;5030745;28;20028;-69
2021/08/15 09:30:17;;;;;;;7.38;6.18;;;31.80;99.90;;;;;;5030660;28;20096;-69
2021/08/15 09:32:43;;;;;;;13.75;7.70;;;31.30;99.90;;;;;;5030665;28;20017;-69
2021/08/15 09:35:09;;;;;;;11.18;7.15;;;30.00;99.90;;;;;;5030039;28;20014;-69
2021/08/15 09:37:36;;;;;;;9.38;7.93;;;29.80;99.90;;;;;;5030778;28;20024;-69
2021/08/15 09:40:20;;;;;;;10.82;7.60;;;30.00;99.90;;;;;;5036148;28;20033;-71
2021/08/15 09:42:46;;;;;;;9.55;7.80;;;30.10;99.90;;;;;;5035681;28;20537;-70
2021/08/15 09:45:14;;;;;;;9.48;7.82;;;30.10;99.90;;;;;;5033225;28;20025;-76
2021/08/15 09:47:40;;;;;;;9.65;8.27;;;29.90;99.90;;;;;;5022599;28;20022;-76
2021/08/15 09:50:24;;;;;;;9.02;7.78;;;30.00;99.90;;;;;;5022076;28;20033;-75
2021/08/15 09:52:50;;;;;;;11.50;7.82;;;30.40;99.90;;;;;;5015109;28;20025;-73
2021/08/15 09:55:16;;;;;;;11.00;7.10;;;31.30;99.90;;;;;;5022910;28;20021;-75
2021/08/15 09:57:42;;;;;;;8.45;7.07;;;31.50;99.90;;;;;;5020538;28;20033;-74
2021/08/15 10:00:37;;;;;;;10.65;7.55;;;31.20;99.90;;;;;;5023529;28;20550;-75
2021/08/15 10:03:03;;;;;;;9.02;7.18;;;30.80;99.90;;;;;;5010934;28;20109;-75
2021/08/15 10:05:32;;;;;;;12.00;7.13;;;31.30;99.90;;;;;;5021728;28;20032;-72
2021/08/15 10:08:00;;;;;;;7.80;6.80;;;31.60;99.90;;;;;;5021266;28;20029;-72
2021/08/15 10:10:26;;;;;;;10.32;6.70;;;32.10;99.90;;;;;;5022366;28;20009;-73
2021/08/15 10:12:52;;;;;;;7.63;6.88;;;32.20;99.90;;;;;;5022550;28;20426;-72
2021/08/15 10:15:18;;;;;;;9.80;7.18;;;32.00;99.50;;;;;;5022422;28;20028;-72
2021/08/15 10:17:46;;;;;;;10.90;7.40;;;31.80;99.90;;;;;;5021604;28;20013;-73
2021/08/15 10:20:18;;;;;;;11.85;6.97;;;31.50;99.90;;;;;;5028806;28;20039;-71
2021/08/15 10:22:45;;;;;;;12.57;6.90;;;32.30;99.70;;;;;;5032858;28;20440;-71
2021/08/15 10:25:31;;;;;;;10.50;7.10;;;32.50;99.00;;;;;;5031868;28;20435;-71
2021/08/15 10:27:56;;;;;;;7.78;6.95;;;33.30;99.00;;;;;;5033418;28;20029;-71
2021/08/15 10:30:44;;;;;;;9.43;7.35;;;33.30;99.10;;;;;;5033334;28;20029;-72
2021/08/15 10:33:09;;;;;;;8.70;6.90;;;33.10;98.00;;;;;;5031817;28;20025;-71
2021/08/15 10:35:36;;;;;;;8.80;6.63;;;32.80;98.50;;;;;;5031942;28;20503;-71
2021/08/15 10:38:17;;;;;;;9.00;7.05;;;32.50;99.00;;;;;;5033160;28;20017;-72
2021/08/15 10:40:43;;;;;;;13.87;7.40;;;31.60;99.60;;;;;;5031867;28;20021;-72
2021/08/15 10:43:11;;;;;;;8.52;7.07;;;31.70;99.90;;;;;;5032997;28;20014;-71
2021/08/15 10:45:37;;;;;;;9.13;7.50;;;31.40;99.30;;;;;;5030816;28;20060;-70
2021/08/15 10:48:08;;;;;;;10.52;6.90;;;31.80;99.60;;;;;;5032441;28;20025;-70
2021/08/15 10:50:47;;;;;;;8.73;6.53;;;32.70;99.20;;;;;;5020749;28;20388;-71
2021/08/15 10:53:36;;;;;;;9.30;6.53;;;33.40;96.80;;;;;;5012957;28;20105;-70
2021/08/15 10:56:05;;;;;;;9.20;6.53;;;33.40;97.70;;;;;;5009479;28;20025;-71
2021/08/15 10:58:46;;;;;;;10.77;6.80;;;33.70;97.30;;;;;;5011894;28;20037;-72
2021/08/15 11:01:18;;;;;;;7.57;6.43;;;34.50;97.00;;;;;;5012614;28;20109;-72
2021/08/15 11:03:47;;;;;;;11.48;6.88;;;35.00;95.40;;;;;;5012896;28;20401;-72
2021/08/15 11:06:31;;;;;;;12.10;6.78;;;34.60;94.90;;;;;;5011676;28;20033;-72
2021/08/15 11:09:05;;;;;;;8.90;5.80;;;35.00;94.50;;;;;;5012351;28;20030;-72
2021/08/15 11:11:33;;;;;;;9.73;6.05;;;35.10;93.40;;;;;;5012391;28;20046;-72
2021/08/15 11:14:17;;;;;;;7.97;5.55;;;35.30;93.90;;;;;;5013425;28;20105;-72
2021/08/15 11:16:52;;;;;;;9.57;6.70;;;35.30;95.00;;;;;;5031976;28;20511;-72
2021/08/15 11:19:18;;;;;;;7.57;6.18;;;36.00;93.10;;;;;;5032312;28;20029;-71
2021/08/15 11:22:02;;;;;;;7.78;6.00;;;36.30;93.50;;;;;;5065313;22;20044;-73
2021/08/15 11:24:54;;;;;;;7.97;6.03;;;36.00;90.80;;;;;;5023377;28;20040;-73
2021/08/15 11:27:28;;;;;;;6.57;5.88;;;36.10;92.20;;;;;;5027374;28;20037;-73
2021/08/15 11:29:55;;;;;;;11.35;6.38;;;36.20;91.20;;;;;;5042383;28;20514;-71
2021/08/15 11:32:27;;;;;;;11.82;6.68;;;35.90;90.70;;;;;;5052086;28;20025;-72
2021/08/15 11:34:55;;;;;;;7.13;6.43;;;35.70;91.10;;;;;;5051193;28;20029;-72
2021/08/15 11:37:26;;;;;;;7.97;6.70;;;35.40;90.60;;;;;;5051844;28;20017;-72
2021/08/15 11:39:54;;;;;;;8.55;6.90;;;35.70;91.40;;;;;;5052009;28;20063;-72
2021/08/15 11:42:25;;;;;;;9.55;7.28;;;36.40;91.10;;;;;;5051408;28;20082;-72
2021/08/15 11:44:52;;;;;;;12.10;6.07;;;36.40;90.50;;;;;;5049565;28;20107;-72
2021/08/15 11:47:30;;;;;;;7.45;6.00;;;36.50;92.00;;;;;;5051720;28;20032;-71
2021/08/15 11:49:58;;;;;;;8.88;5.60;;;36.10;90.50;;;;;;5011984;28;20022;-72
2021/08/15 11:52:26;;;;;;;8.10;6.25;;;36.20;91.30;;;;;;5012227;28;20083;-72
2021/08/15 11:54:53;;;;;;;8.63;6.63;;;36.40;90.00;;;;;;5012034;28;20052;-71
2021/08/15 11:57:20;;;;;;;8.85;6.68;;;35.00;90.20;;;;;;5015646;28;20488;-76
2021/08/15 11:59:47;;;;;;;7.82;6.57;;;34.10;91.60;;;;;;5033114;28;20033;-74
2021/08/15 12:02:19;;;;;;;6.80;6.07;;;34.00;94.60;;;;;;5030956;28;20062;-73
2021/08/15 12:04:45;;;;;;;;;;;34.40;90.90;;;;;;5031124;28;20390;-74
2021/08/15 12:07:11;;;;;;;8.80;5.85;;;34.80;89.10;;;;;;5031578;28;20389;-73
2021/08/15 12:09:37;;;;;;;8.30;5.45;;;35.40;87.80;;;;;;5028880;28;20026;-73
2021/08/15 12:12:05;;;;;;;9.13;5.45;;;36.30;86.40;;;;;;5033094;28;20036;-74
2021/08/15 12:14:36;;;;;;;9.35;6.10;;;36.40;85.60;;;;;;5012818;28;20029;-76
2021/08/15 12:17:03;;;;;;;10.20;6.22;;;36.30;85.60;;;;;;5029350;28;20025;-74
2021/08/15 12:19:31;;;;;;;12.75;6.82;;;36.20;87.50;;;;;;5031739;28;20033;-73
2021/08/15 12:21:58;;;;;;;8.00;5.90;;;35.90;90.70;;;;;;5027433;28;20494;-73
2021/08/15 12:24:27;;;;;;;10.43;7.28;;;35.40;90.20;;;;;;5030009;28;20032;-75
2021/08/15 12:26:55;;;;;;;7.63;6.25;;;34.80;88.30;;;;;;5032790;28;20527;-76
2021/08/15 12:29:25;;;;;;;8.48;6.68;;;34.10;89.60;;;;;;5037363;28;20036;-78
2021/08/15 12:32:02;;;;;;;11.48;6.97;;;33.20;91.50;;;;;;5033993;28;20018;-73
2021/08/15 12:34:28;;;;;;;11.68;7.25;;;32.40;92.80;;;;;;5039927;28;20021;-78